createdAt,value
2022-10-20T00:03:59.659Z,3.10
2022-10-20T00:09:04.231Z,3.00
2022-10-20T00:14:07.087Z,3.20
2022-10-20T00:19:09.712Z,2.80
2022-10-20T00:24:12.402Z,3.40
2022-10-20T00:29:15.143Z,2.80
2022-10-20T00:34:18.209Z,3.20
2022-10-20T00:39:20.910Z,2.20
2022-10-20T00:44:56.573Z,2.60
2022-10-20T00:50:06.111Z,3.70
2022-10-20T00:55:11.804Z,3.20
2022-10-20T01:00:15.709Z,2.60
2022-10-20T01:05:18.618Z,2.90
2022-10-20T01:10:23.563Z,2.20
2022-10-20T01:15:43.275Z,2.90
2022-10-20T01:21:08.082Z,2.30
2022-10-20T01:26:41.892Z,2.60
2022-10-20T01:31:53.456Z,2.90
2022-10-20T01:37:01.338Z,2.40
2022-10-20T01:42:11.226Z,3.10
2022-10-20T01:47:16.157Z,3.10
2022-10-20T01:52:19.271Z,3.00
2022-10-20T01:57:55.674Z,3.60
2022-10-20T02:08:12.442Z,2.90
2022-10-20T02:13:16.177Z,4.00
2022-10-20T02:18:25.692Z,5.00
2022-10-20T02:23:35.105Z,4.80
2022-10-20T02:28:44.843Z,5.70
2022-10-20T02:33:48.940Z,3.40
2022-10-20T02:38:51.541Z,3.70
2022-10-20T02:43:54.252Z,3.30
2022-10-20T02:48:56.963Z,3.20
2022-10-20T02:53:59.552Z,4.40
2022-10-20T02:59:02.258Z,4.20
2022-10-20T03:04:05.075Z,3.20
2022-10-20T03:09:07.861Z,3.70
2022-10-20T03:14:11.359Z,4.80
2022-10-20T03:19:14.279Z,4.50
2022-10-20T03:24:17.087Z,4.20
2022-10-20T03:29:19.779Z,4.00
2022-10-20T03:34:22.750Z,4.60
2022-10-20T03:39:25.356Z,4.90
2022-10-20T03:44:27.979Z,4.70
2022-10-20T03:49:31.696Z,4.80
2022-10-20T03:54:36.005Z,4.60
2022-10-20T03:59:38.634Z,3.90
2022-10-20T04:04:41.216Z,4.60
2022-10-20T04:09:43.810Z,4.20
2022-10-20T04:14:46.410Z,4.90
2022-10-20T04:19:49.019Z,5.80
2022-10-20T04:24:51.653Z,5.30
2022-10-20T04:29:54.421Z,4.50
2022-10-20T04:34:57.400Z,4.40
2022-10-20T04:40:00.084Z,5.30
2022-10-20T04:45:02.770Z,6.50
2022-10-20T04:50:06.134Z,6.30
2022-10-20T04:55:09.329Z,5.50
2022-10-20T05:00:12.936Z,8.90
2022-10-20T05:05:15.562Z,8.10
2022-10-20T05:10:19.589Z,6.60
2022-10-20T05:15:22.287Z,6.70
2022-10-20T05:20:24.985Z,7.60
2022-10-20T05:25:42.805Z,7.40
2022-10-20T05:30:45.556Z,8.40
2022-10-20T05:35:48.212Z,7.40
2022-10-20T05:40:51.013Z,7.90
2022-10-20T05:45:54.882Z,12.20
2022-10-20T05:51:17.125Z,9.20
2022-10-20T05:56:21.070Z,6.50
2022-10-20T06:01:38.771Z,6.30
2022-10-20T06:06:41.979Z,7.50
2022-10-20T06:11:48.322Z,14.60
2022-10-20T06:16:55.955Z,16.20
2022-10-20T06:22:03.811Z,14.50
2022-10-20T06:27:09.385Z,7.20
2022-10-20T06:32:12.096Z,6.00
2022-10-20T06:37:14.929Z,5.70
2022-10-20T06:42:19.542Z,6.70
2022-10-20T06:47:26.642Z,7.20
2022-10-20T06:52:32.277Z,7.70
2022-10-20T06:57:36.011Z,9.60
2022-10-20T07:02:47.534Z,9.20
2022-10-20T07:07:57.719Z,12.30
2022-10-20T07:13:00.620Z,9.40
2022-10-20T07:18:06.967Z,18.00
2022-10-20T07:23:11.093Z,16.40
2022-10-20T07:28:17.262Z,8.50
2022-10-20T07:33:20.323Z,7.20
2022-10-20T07:38:23.037Z,7.40
2022-10-20T07:43:25.645Z,6.60
2022-10-20T07:48:33.663Z,4.90
2022-10-20T07:53:53.830Z,10.60
2022-10-20T07:58:59.624Z,8.40
2022-10-20T08:04:02.515Z,7.60
2022-10-20T08:09:05.713Z,9.30
2022-10-20T08:14:08.643Z,8.50
2022-10-20T08:19:20.152Z,9.10
2022-10-20T08:24:22.985Z,8.00
2022-10-20T08:29:25.851Z,17.30
2022-10-20T08:34:28.564Z,16.60
2022-10-20T08:39:31.437Z,18.00
2022-10-20T08:44:36.248Z,21.30
2022-10-20T08:49:39.202Z,23.30
2022-10-20T08:54:42.148Z,14.70
2022-10-20T08:59:44.774Z,10.60
2022-10-20T09:04:55.860Z,9.90
2022-10-20T09:10:14.753Z,6.90
2022-10-20T09:15:20.240Z,7.10
2022-10-20T09:20:30.496Z,5.90
2022-10-20T09:25:34.607Z,5.80
2022-10-20T09:30:37.223Z,5.50
2022-10-20T09:35:40.303Z,6.10
2022-10-20T09:41:13.304Z,6.40
2022-10-20T09:46:22.673Z,5.20
2022-10-20T09:51:27.707Z,5.70
2022-10-20T09:56:36.968Z,6.00
2022-10-20T10:02:01.187Z,5.70
2022-10-20T10:07:05.953Z,4.80
2022-10-20T10:12:11.375Z,5.10
2022-10-20T10:17:32.038Z,5.10
2022-10-20T10:22:36.402Z,5.30
2022-10-20T10:27:39.343Z,4.40
2022-10-20T10:32:47.732Z,5.50
2022-10-20T10:37:52.390Z,5.40
2022-10-20T10:43:08.411Z,5.10
2022-10-20T10:48:23.423Z,4.50
2022-10-20T10:53:44.888Z,5.50
2022-10-20T10:58:58.201Z,4.70
2022-10-20T11:04:36.842Z,4.30
2022-10-20T11:09:42.288Z,4.70
2022-10-20T11:14:53.766Z,4.40
2022-10-20T11:20:25.479Z,5.40
2022-10-20T11:25:33.066Z,5.70
2022-10-20T11:30:35.719Z,4.20
2022-10-20T11:36:01.204Z,4.40
2022-10-20T11:41:19.196Z,2.40
2022-10-20T11:46:42.952Z,1.90
2022-10-20T11:52:01.665Z,2.20
2022-10-20T11:57:14.845Z,1.80
2022-10-20T12:02:53.311Z,2.00
2022-10-20T12:08:30.626Z,1.90
2022-10-20T12:13:53.999Z,1.90
2022-10-20T12:19:16.467Z,1.90
2022-10-20T12:24:54.800Z,1.80
2022-10-20T12:30:00.680Z,2.00
2022-10-20T12:35:12.820Z,1.80
2022-10-20T12:40:26.684Z,1.70
2022-10-20T12:45:41.051Z,1.80
2022-10-20T12:56:01.329Z,1.90
2022-10-20T13:01:12.650Z,1.90
2022-10-20T13:06:24.764Z,1.80
2022-10-20T13:11:38.567Z,2.20
2022-10-20T13:16:51.734Z,2.10
2022-10-20T13:21:56.769Z,2.50
2022-10-20T13:27:09.189Z,3.90
2022-10-20T13:32:25.346Z,2.40
2022-10-20T13:37:41.759Z,2.60
2022-10-20T13:43:10.737Z,2.20
2022-10-20T13:48:23.040Z,3.20
2022-10-20T13:53:33.852Z,2.60
2022-10-20T13:58:36.587Z,1.90
2022-10-20T14:03:46.953Z,2.10
2022-10-20T14:13:59.772Z,3.40
2022-10-20T14:19:10.597Z,1.70
2022-10-20T14:24:35.402Z,1.70
2022-10-20T14:29:40.300Z,2.20
2022-10-20T14:35:13.979Z,2.00
2022-10-20T14:40:23.231Z,2.10
2022-10-20T14:45:28.146Z,2.40
2022-10-20T14:50:30.882Z,2.30
2022-10-20T14:55:37.338Z,2.40
2022-10-20T15:05:45.387Z,2.30
2022-10-20T15:10:48.433Z,2.80
2022-10-20T15:15:51.437Z,3.40
2022-10-20T15:20:55.749Z,2.80
2022-10-20T15:25:58.576Z,2.90
2022-10-20T15:31:03.630Z,3.30
2022-10-20T15:36:20.246Z,3.20
2022-10-20T15:41:34.832Z,3.70
2022-10-20T15:46:37.633Z,3.70
2022-10-20T15:51:44.428Z,8.60
2022-10-20T15:56:47.945Z,8.80
2022-10-20T16:01:50.747Z,6.90
2022-10-20T16:06:59.036Z,7.10
2022-10-20T16:12:05.245Z,8.00
2022-10-20T16:17:08.059Z,17.30
2022-10-20T16:22:10.963Z,12.60
2022-10-20T16:27:15.707Z,9.00
2022-10-20T16:32:18.510Z,9.90
2022-10-20T16:37:21.925Z,9.00
2022-10-20T16:42:26.466Z,11.60
2022-10-20T16:47:29.266Z,14.20
2022-10-20T16:52:33.093Z,19.50
2022-10-20T16:57:40.406Z,21.20
2022-10-20T17:02:45.145Z,21.80
2022-10-20T17:07:48.047Z,24.30
2022-10-20T17:17:58.566Z,31.50
2022-10-20T17:23:01.366Z,41.30
2022-10-20T17:28:04.271Z,27.30
2022-10-20T17:33:07.655Z,12.10
2022-10-20T17:38:11.818Z,14.90
2022-10-20T17:43:15.477Z,14.20
2022-10-20T17:48:18.443Z,14.80
2022-10-20T17:53:21.246Z,13.70
2022-10-20T17:58:24.151Z,14.30
2022-10-20T18:03:27.056Z,14.20
2022-10-20T18:08:29.871Z,11.80
2022-10-20T18:13:32.755Z,12.00
2022-10-20T18:18:36.071Z,11.20
2022-10-20T18:23:41.431Z,9.40
2022-10-20T18:28:48.189Z,9.20
2022-10-20T18:33:58.186Z,10.30
2022-10-20T18:39:02.530Z,10.20
2022-10-20T18:44:10.073Z,11.80
2022-10-20T18:49:15.505Z,11.80
2022-10-20T18:54:19.706Z,12.30
2022-10-20T18:59:23.256Z,12.70
2022-10-20T19:04:26.150Z,11.30
2022-10-20T19:09:29.064Z,9.80
2022-10-20T19:14:31.864Z,10.30
2022-10-20T19:19:34.667Z,9.30
2022-10-20T19:24:40.745Z,9.30
2022-10-20T19:29:43.546Z,11.00
2022-10-20T19:34:46.450Z,9.60
2022-10-20T19:39:49.355Z,9.10
2022-10-20T19:44:52.152Z,7.90
2022-10-20T19:49:55.467Z,8.60
2022-10-20T19:54:58.678Z,8.30
2022-10-20T20:00:01.476Z,7.80
2022-10-20T20:05:05.386Z,8.50
2022-10-20T20:10:10.262Z,10.20
2022-10-20T20:15:13.156Z,9.10
2022-10-20T20:20:16.061Z,9.10
2022-10-20T20:25:18.967Z,7.60
2022-10-20T20:30:21.867Z,8.30
2022-10-20T20:35:25.082Z,6.40
2022-10-20T20:40:28.288Z,7.30
2022-10-20T20:45:31.088Z,7.50
2022-10-20T20:50:34.302Z,8.40
2022-10-20T20:55:37.099Z,7.80
2022-10-20T21:00:40.050Z,7.10
2022-10-20T21:05:43.053Z,7.00
2022-10-20T21:10:45.809Z,7.60
2022-10-20T21:15:48.612Z,7.40
2022-10-20T21:20:51.411Z,7.10
2022-10-20T21:25:54.213Z,6.90
2022-10-20T21:31:00.845Z,8.80
2022-10-20T21:36:07.471Z,7.80
2022-10-20T21:41:16.338Z,8.50
2022-10-20T21:46:31.426Z,8.70
2022-10-20T21:51:38.836Z,8.60
2022-10-20T21:56:44.463Z,8.30
2022-10-20T22:01:48.808Z,7.20
2022-10-20T22:06:52.255Z,6.80
2022-10-20T22:11:58.646Z,8.30
2022-10-20T22:17:01.443Z,7.30
2022-10-20T22:22:04.346Z,8.70
2022-10-20T22:27:15.459Z,6.60
2022-10-20T22:32:28.174Z,7.00
2022-10-20T22:37:31.080Z,6.80
2022-10-20T22:42:33.881Z,7.20
2022-10-20T22:47:36.782Z,6.30
2022-10-20T22:52:39.825Z,8.60
2022-10-20T22:57:46.825Z,8.80
2022-10-20T23:07:52.449Z,8.00
2022-10-20T23:12:55.183Z,6.70
2022-10-20T23:17:57.805Z,6.90
2022-10-20T23:23:00.478Z,7.00
2022-10-20T23:28:03.122Z,8.30
2022-10-20T23:33:05.759Z,7.80
2022-10-20T23:38:09.761Z,6.90
2022-10-20T23:43:12.332Z,6.30
2022-10-20T23:48:14.967Z,5.80
2022-10-20T23:53:17.988Z,6.90
2022-10-20T23:58:22.580Z,4.50
